Time,TemperatureF,DewpointF,PressureIn,WindDirection,WindDirectionDegrees,WindSpeedMPH,WindSpeedGustMPH,Humidity,HourlyPrecipIn,Conditions,Clouds,dailyrainin,SolarRadiationWatts/m^2,SoftwareType,DateUTC
2013-10-14 00:00:00,79.3,66.5,30.02,NNW,338,5.0,10.0,65,0.00,,---,0.00,0.00,VWS V14.01,2013-10-14 04:00:00,
2013-10-14 00:05:00,79.2,66.0,30.02,WNW,284,2.0,7.0,65,0.00,,,0.00,0,weatherlink.com 1.10,2013-10-14 04:05:00,
2013-10-14 00:20:00,79.2,67.0,30.02,NE,44,4.0,8.0,67,0.00,,,0.00,0,weatherlink.com 1.10,2013-10-14 04:20:00,
2013-10-14 00:30:00,79.1,66.8,30.02,West,270,3.0,8.0,66,0.00,,---,0.00,0.00,VWS V14.01,2013-10-14 04:30:00,
2013-10-14 00:35:00,79.0,67.0,30.02,NNE,18,4.0,7.0,66,0.00,,,0.00,0,weatherlink.com 1.10,2013-10-14 04:35:00,
2013-10-14 00:50:00,79.1,66.0,30.01,WNW,296,2.0,9.0,65,0.00,,,0.00,0,weatherlink.com 1.10,2013-10-14 04:50:00,
2013-10-14 01:00:00,79.0,66.2,30.01,North,0,4.0,10.0,65,0.00,,---,0.00,0.00,VWS V14.01,2013-10-14 05:00:00,
2013-10-14 01:06:00,79.1,67.0,30.01,WNW,298,2.0,7.0,66,0.00,,,0.00,0,weatherlink.com 1.10,2013-10-14 05:06:00,
2013-10-14 01:21:00,79.2,67.0,30.01,NNW,346,2.0,8.0,66,0.00,,,0.00,0,weatherlink.com 1.10,2013-10-14 05:21:00,
2013-10-14 01:30:00,79.1,66.8,30.00,NNW,338,4.0,8.0,66,0.00,,---,0.00,0.00,VWS V14.01,2013-10-14 05:30:00,
2013-10-14 01:36:00,78.9,66.0,30.00,NNW,338,3.0,7.0,65,0.00,,,0.00,0,weatherlink.com 1.10,2013-10-14 05:36:00,
2013-10-14 01:51:00,77.1,67.0,30.00,West,273,2.0,4.0,72,0.00,,,0.00,0,weatherlink.com 1.10,2013-10-14 05:51:00,
2013-10-14 02:00:00,76.5,68.0,30.00,West,270,2.0,7.0,75,0.00,,---,0.00,0.00,VWS V14.01,2013-10-14 06:00:00,
2013-10-14 02:06:00,76.2,68.0,29.99,West,273,2.0,3.0,76,0.00,,,0.00,0,weatherlink.com 1.10,2013-10-14 06:06:00,
2013-10-14 02:21:00,75.3,68.0,29.99,WNW,284,3.0,4.0,79,0.00,,,0.00,0,weatherlink.com 1.10,2013-10-14 06:21:00,
2013-10-14 02:30:00,74.8,68.2,29.99,WNW,292,2.0,5.0,80,0.00,,---,0.00,0.00,VWS V14.01,2013-10-14 06:30:00,
2013-10-14 02:36:00,74.6,68.0,29.98,WNW,286,4.0,4.0,81,0.00,,,0.00,0,weatherlink.com 1.10,2013-10-14 06:36:00,
2013-10-14 02:51:00,74.3,69.0,29.98,WNW,291,3.0,5.0,82,0.00,,,0.00,0,weatherlink.com 1.10,2013-10-14 06:51:00,
2013-10-14 03:00:00,74.2,68.7,29.98,WNW,292,3.0,5.0,83,0.00,,---,0.00,0.00,VWS V14.01,2013-10-14 07:00:00,
2013-10-14 03:06:00,74.1,69.0,29.98,WNW,291,2.0,4.0,83,0.00,,,0.00,0,weatherlink.com 1.10,2013-10-14 07:06:00,
2013-10-14 03:21:00,74.1,69.0,29.98,WNW,290,3.0,4.0,84,0.00,,,0.00,0,weatherlink.com 1.10,2013-10-14 07:21:00,
2013-10-14 03:30:00,74.0,68.9,29.97,WNW,292,2.0,4.0,84,0.00,,---,0.00,0.00,VWS V14.01,2013-10-14 07:30:00,
2013-10-14 03:36:00,73.8,69.0,29.97,WNW,290,3.0,4.0,84,0.00,,,0.00,0,weatherlink.com 1.10,2013-10-14 07:36:00,
2013-10-14 03:51:00,72.9,68.0,29.98,West,281,1.0,6.0,85,0.00,,,0.00,0,weatherlink.com 1.10,2013-10-14 07:51:00,
2013-10-14 04:00:00,72.7,67.9,29.97,WNW,292,3.0,6.0,85,0.00,,---,0.00,0.00,VWS V14.01,2013-10-14 08:00:00,
2013-10-14 04:06:00,72.5,68.0,29.97,WSW,251,5.0,6.0,86,0.00,,,0.00,0,weatherlink.com 1.10,2013-10-14 08:06:00,
2013-10-14 04:21:00,72.1,68.0,29.97,WSW,253,3.0,8.0,86,0.00,,,0.00,0,weatherlink.com 1.10,2013-10-14 08:21:00,
2013-10-14 04:30:00,71.9,67.5,29.97,West,270,3.0,9.0,86,0.00,,---,0.00,0.00,VWS V14.01,2013-10-14 08:30:00,
2013-10-14 04:36:00,71.7,67.0,29.97,WNW,288,6.0,9.0,86,0.00,,,0.00,0,weatherlink.com 1.10,2013-10-14 08:36:00,
2013-10-14 04:51:00,71.4,67.0,29.97,West,268,2.0,8.0,87,0.00,,,0.00,0,weatherlink.com 1.10,2013-10-14 08:51:00,
2013-10-14 05:00:00,71.3,67.2,29.97,West,270,5.0,9.0,87,0.00,,---,0.00,0.00,VWS V14.01,2013-10-14 09:00:00,
2013-10-14 05:06:00,71.3,68.0,29.97,West,272,6.0,9.0,88,0.00,,,0.00,0,weatherlink.com 1.10,2013-10-14 09:06:00,
2013-10-14 05:21:00,71.2,68.0,29.97,West,261,5.0,7.0,89,0.00,,,0.00,0,weatherlink.com 1.10,2013-10-14 09:21:00,
2013-10-14 05:30:00,71.2,67.8,29.97,West,270,4.0,9.0,89,0.00,,---,0.00,0.00,VWS V14.01,2013-10-14 09:30:00,
2013-10-14 05:36:00,71.3,68.0,29.97,West,262,5.0,9.0,89,0.00,,,0.00,0,weatherlink.com 1.10,2013-10-14 09:36:00,
2013-10-14 05:51:00,71.3,68.0,29.97,WSW,246,5.0,8.0,90,0.00,,,0.00,0,weatherlink.com 1.10,2013-10-14 09:51:00,
2013-10-14 06:00:00,71.4,68.3,29.97,West,270,4.0,9.0,90,0.00,,---,0.00,0.00,VWS V14.01,2013-10-14 10:00:00,
2013-10-14 06:06:00,71.6,69.0,29.97,West,273,5.0,7.0,91,0.00,,,0.00,0,weatherlink.com 1.10,2013-10-14 10:06:00,
2013-10-14 06:21:00,72.0,69.0,29.97,West,259,5.0,7.0,91,0.00,,,0.00,0,weatherlink.com 1.10,2013-10-14 10:21:00,
2013-10-14 06:30:00,72.2,69.8,29.98,West,270,4.0,9.0,92,0.00,,---,0.00,0.00,VWS V14.01,2013-10-14 10:30:00,
2013-10-14 06:36:00,72.3,70.0,29.97,West,278,4.0,7.0,92,0.00,,,0.00,0,weatherlink.com 1.10,2013-10-14 10:36:00,
2013-10-14 06:51:00,72.5,70.0,29.97,West,273,3.0,8.0,92,0.00,,,0.00,0,weatherlink.com 1.10,2013-10-14 10:51:00,
2013-10-14 07:00:00,72.5,70.1,29.97,West,270,4.0,8.0,92,0.00,,---,0.00,0.00,VWS V14.01,2013-10-14 11:00:00,
2013-10-14 07:06:00,72.6,70.0,29.97,WSW,254,3.0,6.0,92,0.00,,,0.00,0,weatherlink.com 1.10,2013-10-14 11:06:00,
2013-10-14 07:21:00,72.5,70.0,29.98,SW,225,2.0,5.0,92,0.00,,,0.00,5,weatherlink.com 1.10,2013-10-14 11:21:00,
2013-10-14 07:30:00,72.5,70.1,29.98,SW,225,2.0,6.0,92,0.00,,---,0.00,2.00,VWS V14.01,2013-10-14 11:30:00,
2013-10-14 07:36:00,72.4,70.0,29.97,WSW,249,2.0,5.0,92,0.00,,,0.00,11,weatherlink.com 1.10,2013-10-14 11:36:00,
2013-10-14 07:51:00,72.3,70.0,29.98,WSW,257,0.0,6.0,93,0.00,,,0.00,23,weatherlink.com 1.10,2013-10-14 11:51:00,
2013-10-14 08:00:00,72.3,70.2,29.98,West,270,3.0,6.0,93,0.00,,---,0.00,18.00,VWS V14.01,2013-10-14 12:00:00,
2013-10-14 08:06:00,72.4,70.0,29.98,WSW,240,2.0,4.0,92,0.00,,,0.00,47,weatherlink.com 1.10,2013-10-14 12:06:00,
2013-10-14 08:21:00,73.0,71.0,29.98,WSW,255,3.0,5.0,92,0.00,,,0.00,141,weatherlink.com 1.10,2013-10-14 12:21:00,
2013-10-14 08:30:00,73.4,70.9,29.99,WSW,248,2.0,5.0,92,0.00,,---,0.00,96.00,VWS V14.01,2013-10-14 12:30:00,
2013-10-14 08:36:00,74.1,71.0,29.99,West,260,2.0,5.0,91,0.00,,,0.00,199,weatherlink.com 1.10,2013-10-14 12:36:00,
2013-10-14 08:52:00,75.3,71.0,29.99,West,268,9.0,14.0,86,0.00,,,0.00,253,weatherlink.com 1.10,2013-10-14 12:52:00,
2013-10-14 09:00:00,75.3,70.8,29.99,WSW,248,3.0,14.0,86,0.00,,---,0.00,222.00,VWS V14.01,2013-10-14 13:00:00,
2013-10-14 09:07:00,75.1,71.0,30.00,West,280,8.0,9.0,86,0.00,,,0.00,304,weatherlink.com 1.10,2013-10-14 13:07:00,
2013-10-14 09:22:00,76.2,71.0,29.99,WNW,300,3.0,8.0,84,0.00,,,0.00,360,weatherlink.com 1.10,2013-10-14 13:22:00,
2013-10-14 09:30:00,77.0,71.1,29.99,West,270,4.0,9.0,82,0.00,,---,0.00,328.00,VWS V14.01,2013-10-14 13:30:00,
2013-10-14 09:37:00,78.3,72.0,29.99,NW,309,4.0,7.0,81,0.00,,,0.00,411,weatherlink.com 1.10,2013-10-14 13:37:00,
2013-10-14 09:52:00,79.1,72.0,30.00,NW,311,7.0,8.0,79,0.00,,,0.00,466,weatherlink.com 1.10,2013-10-14 13:52:00,
2013-10-14 10:00:00,79.6,71.8,30.00,WNW,292,4.0,8.0,77,0.00,,---,0.00,433.00,VWS V14.01,2013-10-14 14:00:00,
2013-10-14 10:07:00,79.9,72.0,30.00,WNW,293,7.0,9.0,76,0.00,,,0.00,504,weatherlink.com 1.10,2013-10-14 14:07:00,
2013-10-14 10:22:00,80.3,73.0,30.00,NNW,344,7.0,10.0,77,0.00,,,0.00,547,weatherlink.com 1.10,2013-10-14 14:22:00,
2013-10-14 10:30:00,80.9,72.6,30.00,NW,315,5.0,11.0,76,0.00,,---,0.00,524.00,VWS V14.01,2013-10-14 14:30:00,
2013-10-14 10:37:00,80.7,73.0,30.00,NW,321,7.0,13.0,77,0.00,,,0.00,592,weatherlink.com 1.10,2013-10-14 14:37:00,
2013-10-14 10:52:00,81.0,73.0,30.01,NW,312,7.0,14.0,77,0.00,,,0.00,657,weatherlink.com 1.10,2013-10-14 14:52:00,
2013-10-14 11:00:00,81.0,73.1,30.01,NNW,338,8.0,14.0,77,0.00,,---,0.00,619.00,VWS V14.01,2013-10-14 15:00:00,
2013-10-14 11:07:00,80.6,73.0,30.01,WSW,244,5.0,14.0,77,0.00,,,0.00,712,weatherlink.com 1.10,2013-10-14 15:07:00,
2013-10-14 11:22:00,81.9,72.0,30.00,North,350,12.0,14.0,73,0.00,,,0.00,715,weatherlink.com 1.10,2013-10-14 15:22:00,
2013-10-14 11:30:00,82.1,72.2,30.00,NNW,338,8.0,14.0,72,0.00,,---,0.00,619.00,VWS V14.01,2013-10-14 15:30:00,
2013-10-14 11:37:00,82.2,71.0,30.01,North,360,11.0,12.0,69,0.00,,,0.00,735,weatherlink.com 1.10,2013-10-14 15:37:00,
2013-10-14 11:52:00,82.5,71.0,30.00,NW,311,5.0,12.0,69,0.00,,,0.00,765,weatherlink.com 1.10,2013-10-14 15:52:00,
2013-10-14 12:00:00,82.5,72.6,30.00,NNW,338,7.0,15.0,72,0.00,,---,0.00,750.00,VWS V14.01,2013-10-14 16:00:00,
2013-10-14 12:07:00,82.5,73.0,30.00,NE,34,11.0,12.0,72,0.00,,,0.00,800,weatherlink.com 1.10,2013-10-14 16:07:00,
2013-10-14 12:22:00,82.2,72.0,30.00,NNE,32,4.0,13.0,72,0.00,,,0.00,907,weatherlink.com 1.10,2013-10-14 16:22:00,
2013-10-14 12:30:00,82.0,72.5,30.00,NNW,338,7.0,14.0,73,0.00,,---,0.00,780.00,VWS V14.01,2013-10-14 16:30:00,
2013-10-14 12:37:00,82.5,72.0,29.99,North,5,8.0,13.0,71,0.00,,,0.00,911,weatherlink.com 1.10,2013-10-14 16:37:00,
2013-10-14 12:52:00,82.7,72.0,29.99,NW,318,3.0,12.0,70,0.00,,,0.00,826,weatherlink.com 1.10,2013-10-14 16:52:00,
2013-10-14 13:00:00,82.7,71.5,29.99,NNW,338,7.0,13.0,69,0.00,,---,0.00,849.00,VWS V14.01,2013-10-14 17:00:00,
2013-10-14 13:07:00,82.6,72.0,29.98,NW,314,6.0,12.0,70,0.00,,,0.00,819,weatherlink.com 1.10,2013-10-14 17:07:00,
2013-10-14 13:22:00,82.6,72.0,29.97,North,350,3.0,13.0,71,0.00,,,0.00,816,weatherlink.com 1.10,2013-10-14 17:22:00,
2013-10-14 13:30:00,82.7,71.9,29.97,North,0,7.0,14.0,70,0.00,,---,0.00,818.00,VWS V14.01,2013-10-14 17:30:00,
2013-10-14 13:37:00,82.6,71.0,29.97,NW,319,4.0,14.0,69,0.00,,,0.00,810,weatherlink.com 1.10,2013-10-14 17:37:00,
2013-10-14 13:52:00,82.4,73.0,29.96,NW,323,7.0,13.0,72,0.00,,,0.00,819,weatherlink.com 1.10,2013-10-14 17:52:00,
2013-10-14 14:00:00,82.0,72.1,29.96,North,0,8.0,16.0,72,0.00,,---,0.00,794.00,VWS V14.01,2013-10-14 18:00:00,
2013-10-14 14:07:00,81.9,73.0,29.95,North,9,11.0,16.0,74,0.00,,,0.00,795,weatherlink.com 1.10,2013-10-14 18:07:00,
2013-10-14 14:22:00,81.8,72.0,29.95,North,360,11.0,15.0,73,0.00,,,0.00,795,weatherlink.com 1.10,2013-10-14 18:22:00,
2013-10-14 14:30:00,81.6,72.1,29.95,North,0,8.0,17.0,73,0.00,,---,0.00,799.00,VWS V14.01,2013-10-14 18:30:00,
2013-10-14 14:37:00,81.1,72.0,29.95,NNE,26,10.0,16.0,74,0.00,,,0.00,765,weatherlink.com 1.10,2013-10-14 18:37:00,
2013-10-14 14:52:00,80.8,72.0,29.94,NW,310,7.0,15.0,74,0.00,,,0.00,726,weatherlink.com 1.10,2013-10-14 18:52:00,
2013-10-14 15:00:00,80.7,71.7,29.94,North,0,10.0,17.0,74,0.00,,---,0.00,752.00,VWS V14.01,2013-10-14 19:00:00,
2013-10-14 15:08:00,80.7,72.0,29.94,North,11,11.0,16.0,75,0.00,,,0.00,717,weatherlink.com 1.10,2013-10-14 19:08:00,
2013-10-14 15:23:00,80.7,71.0,29.94,NNW,348,11.0,18.0,73,0.00,,,0.00,666,weatherlink.com 1.10,2013-10-14 19:23:00,
2013-10-14 15:30:00,80.7,71.7,29.94,North,0,11.0,18.0,74,0.00,,---,0.00,694.00,VWS V14.01,2013-10-14 19:30:00,
2013-10-14 15:38:00,80.4,73.0,29.94,NNW,348,11.0,17.0,77,0.00,,,0.00,626,weatherlink.com 1.10,2013-10-14 19:38:00,
2013-10-14 15:53:00,80.3,73.0,29.93,North,355,7.0,16.0,77,0.00,,,0.00,585,weatherlink.com 1.10,2013-10-14 19:53:00,
2013-10-14 16:00:00,80.1,71.9,29.93,North,0,11.0,17.0,76,0.00,,---,0.00,613.00,VWS V14.01,2013-10-14 20:00:00,
2013-10-14 16:08:00,80.1,71.0,29.93,North,5,9.0,17.0,74,0.00,,,0.00,543,weatherlink.com 1.10,2013-10-14 20:08:00,
2013-10-14 16:23:00,80.2,71.0,29.92,North,360,12.0,17.0,74,0.00,,,0.00,497,weatherlink.com 1.10,2013-10-14 20:23:00,
2013-10-14 16:30:00,80.1,71.5,29.93,North,0,11.0,17.0,75,0.00,,---,0.00,525.00,VWS V14.01,2013-10-14 20:30:00,
2013-10-14 16:38:00,80.0,71.0,29.92,NNE,13,12.0,17.0,73,0.00,,,0.00,450,weatherlink.com 1.10,2013-10-14 20:38:00,
2013-10-14 16:53:00,80.1,70.0,29.92,NW,306,13.0,16.0,72,0.00,,,0.00,401,weatherlink.com 1.10,2013-10-14 20:53:00,
2013-10-14 17:00:00,80.0,70.2,29.92,North,0,12.0,18.0,72,0.00,,---,0.00,431.00,VWS V14.01,2013-10-14 21:00:00,
2013-10-14 17:08:00,80.0,70.0,29.93,NW,313,10.0,16.0,71,0.00,,,0.00,350,weatherlink.com 1.10,2013-10-14 21:08:00,
2013-10-14 17:23:00,80.0,69.0,29.93,North,360,13.0,16.0,69,0.00,,,0.00,294,weatherlink.com 1.10,2013-10-14 21:23:00,
2013-10-14 17:30:00,80.0,69.8,29.93,North,0,11.0,16.0,71,0.00,,---,0.00,326.00,VWS V14.01,2013-10-14 21:30:00,
2013-10-14 17:38:00,80.1,70.0,29.93,NE,43,11.0,17.0,72,0.00,,,0.00,244,weatherlink.com 1.10,2013-10-14 21:38:00,
2013-10-14 17:53:00,79.9,70.0,29.94,NNW,338,8.0,16.0,72,0.00,,,0.00,165,weatherlink.com 1.10,2013-10-14 21:53:00,
2013-10-14 18:00:00,79.8,70.8,29.94,North,0,10.0,17.0,74,0.00,,---,0.00,210.00,VWS V14.01,2013-10-14 22:00:00,
2013-10-14 18:08:00,79.9,71.0,29.94,NW,325,10.0,16.0,75,0.00,,,0.00,114,weatherlink.com 1.10,2013-10-14 22:08:00,
2013-10-14 18:23:00,79.8,71.0,29.93,North,351,4.0,16.0,74,0.00,,,0.00,65,weatherlink.com 1.10,2013-10-14 22:23:00,
2013-10-14 18:30:00,79.8,70.8,29.93,North,0,9.0,16.0,74,0.00,,---,0.00,98.00,VWS V14.01,2013-10-14 22:30:00,
2013-10-14 18:38:00,79.7,70.0,29.93,NW,326,6.0,16.0,73,0.00,,,0.00,23,weatherlink.com 1.10,2013-10-14 22:38:00,
2013-10-14 18:53:00,79.8,70.0,29.94,West,272,5.0,11.0,73,0.00,,,0.00,5,weatherlink.com 1.10,2013-10-14 22:53:00,
2013-10-14 19:00:00,79.5,69.7,29.94,NW,315,7.0,16.0,72,0.00,,---,0.00,15.00,VWS V14.01,2013-10-14 23:00:00,
2013-10-14 19:08:00,79.4,70.0,29.94,NNW,332,3.0,10.0,72,0.00,,,0.00,0,weatherlink.com 1.10,2013-10-14 23:08:00,
2013-10-14 19:23:00,79.3,70.0,29.94,WNW,285,4.0,11.0,74,0.00,,,0.00,0,weatherlink.com 1.10,2013-10-14 23:23:00,
2013-10-14 19:30:00,79.3,70.3,29.94,NW,315,5.0,11.0,74,0.00,,---,0.00,0.00,VWS V14.01,2013-10-14 23:30:00,
2013-10-14 19:38:00,79.0,71.0,29.94,NNW,329,5.0,11.0,76,0.00,,,0.00,0,weatherlink.com 1.10,2013-10-14 23:38:00,
2013-10-14 19:53:00,79.0,70.0,29.95,NW,304,5.0,10.0,75,0.00,,,0.00,0,weatherlink.com 1.10,2013-10-14 23:53:00,
2013-10-14 20:00:00,78.9,69.9,29.95,NW,315,5.0,11.0,74,0.00,,---,0.00,0.00,VWS V14.01,2013-10-15 00:00:00,
2013-10-14 20:08:00,79.0,70.0,29.95,WNW,300,5.0,12.0,74,0.00,,,0.00,0,weatherlink.com 1.10,2013-10-15 00:08:00,
2013-10-14 20:23:00,79.1,70.0,29.95,NW,308,4.0,11.0,74,0.00,,,0.00,0,weatherlink.com 1.10,2013-10-15 00:23:00,
2013-10-14 20:30:00,79.1,69.7,29.95,North,0,7.0,13.0,73,0.00,,---,0.00,0.00,VWS V14.01,2013-10-15 00:30:00,
2013-10-14 20:38:00,79.3,70.0,29.96,NW,307,8.0,11.0,72,0.00,,,0.00,0,weatherlink.com 1.10,2013-10-15 00:38:00,
2013-10-14 20:53:00,79.4,70.0,29.96,West,273,5.0,10.0,72,0.00,,,0.00,0,weatherlink.com 1.10,2013-10-15 00:53:00,
2013-10-14 21:00:00,79.4,68.8,29.96,North,0,6.0,12.0,70,0.00,,---,0.00,0.00,VWS V14.01,2013-10-15 01:00:00,
2013-10-14 21:08:00,79.4,69.0,29.96,NW,312,9.0,11.0,71,0.00,,,0.00,0,weatherlink.com 1.10,2013-10-15 01:08:00,
2013-10-14 21:23:00,79.4,68.0,29.96,North,351,3.0,9.0,69,0.00,,,0.00,0,weatherlink.com 1.10,2013-10-15 01:23:00,
2013-10-14 21:30:00,79.5,68.0,29.96,North,0,6.0,11.0,68,0.00,,---,0.00,0.00,VWS V14.01,2013-10-15 01:30:00,
2013-10-14 21:38:00,79.6,68.0,29.97,NNW,338,5.0,10.0,68,0.00,,,0.00,0,weatherlink.com 1.10,2013-10-15 01:38:00,
2013-10-14 21:53:00,79.5,68.0,29.97,North,5,5.0,9.0,68,0.00,,,0.00,0,weatherlink.com 1.10,2013-10-15 01:53:00,
2013-10-14 22:00:00,79.4,68.8,29.97,North,0,5.0,10.0,70,0.00,,---,0.00,0.00,VWS V14.01,2013-10-15 02:00:00,
2013-10-14 22:08:00,79.5,68.0,29.97,NNW,338,5.0,10.0,69,0.00,,,0.00,0,weatherlink.com 1.10,2013-10-15 02:08:00,
2013-10-14 22:23:00,79.4,69.0,29.97,North,355,5.0,11.0,71,0.00,,,0.00,0,weatherlink.com 1.10,2013-10-15 02:23:00,
2013-10-14 22:30:00,79.3,69.5,29.97,North,0,6.0,11.0,72,0.00,,---,0.00,0.00,VWS V14.01,2013-10-15 02:30:00,
2013-10-14 22:38:00,79.1,70.0,29.97,NNW,334,5.0,8.0,74,0.00,,,0.00,0,weatherlink.com 1.10,2013-10-15 02:38:00,
2013-10-14 22:53:00,79.0,70.0,29.97,NNW,334,4.0,9.0,75,0.00,,,0.00,0,weatherlink.com 1.10,2013-10-15 02:53:00,
2013-10-14 23:00:00,79.0,70.0,29.97,North,0,5.0,9.0,74,0.00,,---,0.00,0.00,VWS V14.01,2013-10-15 03:00:00,
2013-10-14 23:08:00,79.1,71.0,29.97,NNE,16,6.0,11.0,75,0.00,,,0.00,0,weatherlink.com 1.10,2013-10-15 03:08:00,
2013-10-14 23:23:00,78.8,71.0,29.97,North,355,5.0,8.0,76,0.00,,,0.00,0,weatherlink.com 1.10,2013-10-15 03:23:00,
2013-10-14 23:30:00,78.9,70.7,29.98,North,0,5.0,11.0,76,0.00,,---,0.00,0.00,VWS V14.01,2013-10-15 03:30:00,
2013-10-14 23:38:00,78.8,71.0,29.97,NNW,337,6.0,7.0,77,0.00,,,0.00,0,weatherlink.com 1.10,2013-10-15 03:38:00,
2013-10-14 23:53:00,78.7,71.0,29.97,WNW,293,3.0,7.0,77,0.00,,,0.00,0,weatherlink.com 1.10,2013-10-15 03:53:00,